Time;durP1;ratioP1;P1;durP2;ratioP2;P2;SDS_P1;SDS_P2;PMS_P1;PMS_P2;Temp;Humidity;BMP_temperature;BMP_pressure;BME280_temperature;BME280_humidity;BME280_pressure;Samples;Min_cycle;Max_cycle;Signal;HPM_P1;HPM_P2
2023/09/09 00:00:30;;;;;;;25.77;15.40;;;;;;;;;;6243271;28;20054;-59
2023/09/09 00:03:51;;;;;;;26.35;15.23;;;;;;;;;;6243076;28;20052;-57
2023/09/09 00:06:51;;;;;;;23.30;15.15;;;;;;;;;;6244031;28;20045;-58
2023/09/09 00:09:52;;;;;;;27.02;15.77;;;;;;;;;;6242937;28;20045;-57
2023/09/09 00:12:52;;;;;;;24.33;16.47;;;;;;;;;;6242499;28;20049;-58
2023/09/09 00:15:54;;;;;;;25.05;15.10;;;;;;;;;;6242758;28;20041;-59
2023/09/09 00:18:55;;;;;;;24.02;14.85;;;;;;;;;;6242474;28;20045;-58
2023/09/09 00:21:56;;;;;;;22.45;14.88;;;;;;;;;;6257928;28;20045;-58
2023/09/09 00:24:56;;;;;;;25.50;16.45;;;;;;;;;;6244498;28;20050;-58
2023/09/09 00:27:57;;;;;;;24.40;15.35;;;;;;;;;;6241601;28;20058;-58
2023/09/09 00:30:57;;;;;;;25.05;15.82;;;;;;;;;;6243204;28;20479;-59
2023/09/09 00:33:58;;;;;;;24.00;15.00;;;;;;;;;;6242522;28;20057;-59
2023/09/09 00:36:58;;;;;;;23.17;15.23;;;;;;;;;;6242011;28;20052;-59
2023/09/09 00:39:59;;;;;;;25.87;16.13;;;;;;;;;;6241096;28;20481;-59
2023/09/09 00:43:00;;;;;;;26.17;15.80;;;;;;;;;;6239925;28;20512;-56
2023/09/09 00:46:00;;;;;;;26.48;15.25;;;;;;;;;;6242938;28;20120;-58
2023/09/09 00:49:03;;;;;;;24.05;15.73;;;;;;;;;;6242660;28;20412;-58
2023/09/09 00:52:04;;;;;;;26.20;16.08;;;;;;;;;;6242348;28;20519;-59
2023/09/09 00:55:06;;;;;;;29.05;15.90;;;;;;;;;;6243468;28;20045;-58
2023/09/09 00:58:06;;;;;;;;;;;;;;;;;;6242327;28;20051;-57
2023/09/09 01:01:07;;;;;;;26.33;15.07;;;;;;;;;;6241796;28;19925;-58
2023/09/09 01:04:08;;;;;;;25.65;15.73;;;;;;;;;;6242135;28;20049;-58
2023/09/09 01:07:09;;;;;;;26.23;16.05;;;;;;;;;;6241534;28;20037;-57
2023/09/09 01:10:10;;;;;;;29.20;15.80;;;;;;;;;;6240653;28;20144;-58
2023/09/09 01:13:10;;;;;;;26.70;15.67;;;;;;;;;;6242511;28;20050;-57
2023/09/09 01:16:13;;;;;;;25.35;15.05;;;;;;;;;;6242287;28;20075;-58
2023/09/09 01:19:15;;;;;;;;;;;;;;;;;;6242448;28;20049;-59
2023/09/09 01:22:18;;;;;;;22.40;14.85;;;;;;;;;;6255212;28;19928;-57
2023/09/09 01:25:18;;;;;;;26.85;15.02;;;;;;;;;;6254068;28;20049;-59
2023/09/09 01:28:22;;;;;;;24.52;15.48;;;;;;;;;;6241630;28;20044;-57
2023/09/09 01:31:22;;;;;;;25.23;15.52;;;;;;;;;;6241666;28;20140;-59
2023/09/09 01:34:23;;;;;;;25.80;16.85;;;;;;;;;;6242241;28;20095;-60
2023/09/09 01:37:23;;;;;;;24.88;16.33;;;;;;;;;;6242220;28;20049;-57
2023/09/09 01:40:24;;;;;;;24.73;15.05;;;;;;;;;;6240080;28;20049;-59
2023/09/09 01:43:24;;;;;;;23.58;15.65;;;;;;;;;;6240624;28;20046;-59
2023/09/09 01:46:25;;;;;;;26.85;15.68;;;;;;;;;;6240462;28;20049;-58
2023/09/09 01:49:25;;;;;;;25.00;15.77;;;;;;;;;;6241490;28;20509;-58
2023/09/09 01:52:26;;;;;;;21.70;14.85;;;;;;;;;;6241938;28;20546;-59
2023/09/09 01:55:27;;;;;;;23.58;15.27;;;;;;;;;;6242872;28;20049;-57
2023/09/09 01:58:27;;;;;;;26.25;15.75;;;;;;;;;;6246171;28;20049;-59
2023/09/09 02:01:28;;;;;;;30.15;16.75;;;;;;;;;;6245725;28;20053;-58
2023/09/09 02:04:28;;;;;;;24.38;16.13;;;;;;;;;;6246367;28;20042;-56
2023/09/09 02:07:29;;;;;;;26.63;15.57;;;;;;;;;;6245285;28;20053;-58
2023/09/09 02:10:30;;;;;;;28.23;16.23;;;;;;;;;;6245180;28;20118;-59
2023/09/09 02:13:30;;;;;;;25.35;16.25;;;;;;;;;;6244817;28;20479;-59
2023/09/09 02:16:31;;;;;;;27.10;16.95;;;;;;;;;;6246328;28;20065;-58
2023/09/09 02:19:32;;;;;;;25.47;16.03;;;;;;;;;;6248748;28;20056;-57
2023/09/09 02:22:33;;;;;;;25.80;16.38;;;;;;;;;;6260677;28;20068;-58
2023/09/09 02:25:33;;;;;;;25.10;16.23;;;;;;;;;;6247043;28;20098;-59
2023/09/09 02:28:34;;;;;;;29.20;16.92;;;;;;;;;;6245838;28;20053;-59
2023/09/09 02:31:34;;;;;;;25.85;16.30;;;;;;;;;;6246553;28;20107;-59
2023/09/09 02:34:35;;;;;;;26.00;15.70;;;;;;;;;;6244061;28;20049;-59
2023/09/09 02:37:36;;;;;;;26.50;15.63;;;;;;;;;;6245785;28;20048;-55
2023/09/09 02:40:36;;;;;;;27.45;16.85;;;;;;;;;;6245475;28;20037;-59
2023/09/09 02:43:37;;;;;;;26.85;16.20;;;;;;;;;;6244448;28;20045;-57
2023/09/09 02:46:38;;;;;;;24.98;16.58;;;;;;;;;;6243456;28;20983;-59
2023/09/09 02:49:40;;;;;;;26.13;16.13;;;;;;;;;;6245391;28;20050;-58
2023/09/09 02:52:40;;;;;;;28.90;17.42;;;;;;;;;;6243077;28;20045;-57
2023/09/09 02:55:41;;;;;;;28.42;18.08;;;;;;;;;;6244492;28;20429;-57
2023/09/09 02:58:41;;;;;;;27.35;16.52;;;;;;;;;;6245694;28;20084;-55
2023/09/09 03:01:42;;;;;;;25.77;16.58;;;;;;;;;;6244314;28;20485;-58
2023/09/09 03:04:43;;;;;;;26.40;15.55;;;;;;;;;;6244786;28;20049;-57
2023/09/09 03:07:45;;;;;;;23.00;15.20;;;;;;;;;;6243912;28;20042;-60
2023/09/09 03:10:46;;;;;;;29.65;16.38;;;;;;;;;;6244060;28;20049;-57
2023/09/09 03:13:47;;;;;;;26.45;16.90;;;;;;;;;;6244677;28;20552;-56
2023/09/09 03:16:47;;;;;;;27.98;16.60;;;;;;;;;;6244501;28;20373;-58
2023/09/09 03:19:48;;;;;;;28.17;16.50;;;;;;;;;;6248415;28;20041;-58
2023/09/09 03:22:48;;;;;;;28.65;16.85;;;;;;;;;;6263660;28;20110;-58
2023/09/09 03:25:49;;;;;;;25.73;15.32;;;;;;;;;;6252690;28;20456;-57
2023/09/09 03:28:50;;;;;;;27.35;15.95;;;;;;;;;;6245206;28;20069;-58
2023/09/09 03:31:51;;;;;;;24.63;16.07;;;;;;;;;;6243571;28;20184;-56
2023/09/09 03:34:52;;;;;;;22.67;15.65;;;;;;;;;;6242358;28;20045;-58
2023/09/09 03:37:53;;;;;;;24.80;15.23;;;;;;;;;;6243157;28;20142;-58
2023/09/09 03:40:53;;;;;;;27.80;15.10;;;;;;;;;;6241893;28;20069;-57
2023/09/09 03:43:54;;;;;;;23.95;15.32;;;;;;;;;;6244691;28;20049;-57
2023/09/09 03:46:54;;;;;;;25.17;15.43;;;;;;;;;;6241674;28;20099;-58
2023/09/09 03:49:55;;;;;;;22.98;15.57;;;;;;;;;;6243698;28;20050;-57
2023/09/09 03:52:56;;;;;;;27.67;15.93;;;;;;;;;;6243739;28;20048;-58
2023/09/09 03:55:59;;;;;;;25.52;16.17;;;;;;;;;;6245221;28;20041;-55
2023/09/09 03:58:59;;;;;;;26.52;16.83;;;;;;;;;;6243508;28;20124;-57
2023/09/09 04:02:00;;;;;;;26.60;16.52;;;;;;;;;;6242221;28;20086;-58
2023/09/09 04:05:01;;;;;;;26.02;15.10;;;;;;;;;;6244487;28;20128;-58
2023/09/09 04:08:03;;;;;;;25.75;16.05;;;;;;;;;;6243997;28;20045;-58
2023/09/09 04:11:04;;;;;;;24.67;16.23;;;;;;;;;;6242541;28;20045;-58
2023/09/09 04:14:05;;;;;;;27.38;16.42;;;;;;;;;;6243248;28;20132;-57
2023/09/09 04:17:07;;;;;;;26.10;16.85;;;;;;;;;;6243906;28;20404;-55
2023/09/09 04:20:11;;;;;;;21.92;14.57;;;;;;;;;;6249816;28;20055;-57
2023/09/09 04:23:12;;;;;;;26.38;15.38;;;;;;;;;;6258247;28;20049;-60
2023/09/09 04:26:12;;;;;;;25.98;15.63;;;;;;;;;;6243559;28;20052;-58
2023/09/09 04:29:13;;;;;;;26.10;14.65;;;;;;;;;;6242864;28;20049;-58
2023/09/09 04:32:13;;;;;;;25.02;15.77;;;;;;;;;;6243381;28;20045;-59
2023/09/09 04:35:14;;;;;;;25.40;15.90;;;;;;;;;;6243297;28;20570;-58
2023/09/09 04:38:14;;;;;;;27.38;16.38;;;;;;;;;;6242606;28;20049;-56
2023/09/09 04:41:15;;;;;;;25.92;16.13;;;;;;;;;;6242056;28;20088;-56
2023/09/09 04:44:16;;;;;;;30.08;17.02;;;;;;;;;;6243479;28;20049;-58
2023/09/09 04:47:16;;;;;;;29.45;16.60;;;;;;;;;;6241681;28;20481;-58
2023/09/09 04:50:18;;;;;;;28.92;16.58;;;;;;;;;;6242614;28;20057;-59
2023/09/09 04:53:19;;;;;;;26.60;16.05;;;;;;;;;;6245047;28;20056;-59
2023/09/09 04:56:20;;;;;;;26.10;15.75;;;;;;;;;;6250262;28;20042;-58
2023/09/09 04:59:20;;;;;;;26.88;16.00;;;;;;;;;;6249046;28;20147;-58
2023/09/09 05:02:21;;;;;;;27.92;16.00;;;;;;;;;;6243731;28;20057;-58
2023/09/09 05:05:22;;;;;;;24.60;15.67;;;;;;;;;;6241577;28;20501;-56
2023/09/09 05:08:22;;;;;;;26.70;16.48;;;;;;;;;;6241707;28;20053;-57
2023/09/09 05:11:23;;;;;;;26.02;15.68;;;;;;;;;;6242032;28;20049;-56
2023/09/09 05:14:24;;;;;;;29.15;17.65;;;;;;;;;;6242365;28;20045;-57
2023/09/09 05:17:25;;;;;;;30.52;18.85;;;;;;;;;;6242592;28;20396;-58
2023/09/09 05:20:25;;;;;;;31.40;18.33;;;;;;;;;;6246448;28;20041;-57
2023/09/09 05:23:26;;;;;;;29.52;17.95;;;;;;;;;;6256110;28;20068;-57
2023/09/09 05:26:26;;;;;;;29.80;18.42;;;;;;;;;;6249254;28;20053;-57
2023/09/09 05:29:27;;;;;;;27.48;17.90;;;;;;;;;;6239992;28;20550;-59
2023/09/09 05:32:28;;;;;;;29.80;18.80;;;;;;;;;;6244913;28;20505;-58
2023/09/09 05:35:28;;;;;;;31.83;18.70;;;;;;;;;;6245206;28;20046;-57
2023/09/09 05:38:29;;;;;;;31.48;19.63;;;;;;;;;;6246949;28;20048;-57
2023/09/09 05:41:30;;;;;;;26.90;17.53;;;;;;;;;;6247019;28;20128;-57
2023/09/09 05:44:30;;;;;;;29.83;17.60;;;;;;;;;;6246291;28;20099;-57
2023/09/09 05:47:31;;;;;;;31.40;18.20;;;;;;;;;;6247011;28;20095;-58
2023/09/09 05:50:31;;;;;;;30.27;18.85;;;;;;;;;;6244929;28;20076;-54
2023/09/09 05:53:32;;;;;;;31.08;18.83;;;;;;;;;;6246901;28;20069;-58
2023/09/09 05:56:33;;;;;;;34.60;20.30;;;;;;;;;;6251531;28;20498;-57
2023/09/09 05:59:34;;;;;;;33.53;20.08;;;;;;;;;;6245169;28;20087;-59
2023/09/09 06:02:34;;;;;;;32.55;20.35;;;;;;;;;;6244330;28;20053;-58
2023/09/09 06:05:35;;;;;;;37.97;21.15;;;;;;;;;;6244279;28;20057;-59
2023/09/09 06:08:36;;;;;;;40.38;22.77;;;;;;;;;;6244314;28;20045;-57
2023/09/09 06:11:37;;;;;;;37.08;21.08;;;;;;;;;;6242637;28;20482;-59
2023/09/09 06:14:38;;;;;;;35.17;21.02;;;;;;;;;;6244882;28;20045;-58
2023/09/09 06:17:39;;;;;;;32.58;20.08;;;;;;;;;;6244015;28;20060;-57
2023/09/09 06:20:46;;;;;;;33.78;21.63;;;;;;;;;;6245369;28;20089;-58
2023/09/09 06:23:47;;;;;;;36.10;22.80;;;;;;;;;;6246090;28;20056;-57
2023/09/09 06:26:48;;;;;;;39.08;24.00;;;;;;;;;;6245836;28;20417;-58
2023/09/09 06:29:48;;;;;;;43.80;25.25;;;;;;;;;;6245591;28;20056;-58
2023/09/09 06:32:49;;;;;;;39.55;24.77;;;;;;;;;;6248945;28;20095;-58
2023/09/09 06:35:51;;;;;;;38.03;25.30;;;;;;;;;;6241194;28;20497;-57
2023/09/09 06:38:51;;;;;;;40.92;26.00;;;;;;;;;;6242061;28;20563;-58
2023/09/09 06:41:52;;;;;;;43.03;26.93;;;;;;;;;;6243889;28;20132;-59
2023/09/09 06:44:52;;;;;;;40.73;26.73;;;;;;;;;;6245193;28;20056;-58
2023/09/09 06:47:53;;;;;;;45.80;28.17;;;;;;;;;;6245469;28;20757;-56
2023/09/09 06:50:53;;;;;;;44.67;28.95;;;;;;;;;;6245888;28;20041;-59
2023/09/09 06:53:54;;;;;;;51.73;29.93;;;;;;;;;;6664470;22;21208;-56
2023/09/09 06:56:55;;;;;;;47.10;30.95;;;;;;;;;;6286790;28;20416;-59
2023/09/09 06:59:55;;;;;;;49.33;30.05;;;;;;;;;;6290954;28;20036;-58
2023/09/09 07:02:56;;;;;;;47.17;30.80;;;;;;;;;;6289788;28;20048;-57
2023/09/09 07:06:00;;;;;;;50.77;30.10;;;;;;;;;;6290908;28;20128;-58
2023/09/09 07:09:00;;;;;;;53.90;31.85;;;;;;;;;;6293268;28;20091;-57
2023/09/09 07:12:01;;;;;;;52.33;28.87;;;;;;;;;;6293198;28;20040;-57
2023/09/09 07:15:03;;;;;;;49.60;30.63;;;;;;;;;;6291887;28;20066;-59
2023/09/09 07:18:03;;;;;;;52.10;32.33;;;;;;;;;;6292812;28;20483;-58
2023/09/09 07:21:04;;;;;;;46.73;28.73;;;;;;;;;;6289692;28;20042;-55
2023/09/09 07:24:05;;;;;;;47.37;30.17;;;;;;;;;;6291782;28;20139;-55
2023/09/09 07:27:05;;;;;;;47.00;30.30;;;;;;;;;;6292607;28;20040;-52
2023/09/09 07:30:07;;;;;;;45.97;29.10;;;;;;;;;;6290501;28;20040;-57
2023/09/09 07:33:07;;;;;;;44.72;28.60;;;;;;;;;;6292339;28;20053;-58
2023/09/09 07:36:09;;;;;;;42.40;26.77;;;;;;;;;;6291928;28;20502;-55
2023/09/09 07:39:10;;;;;;;43.33;25.75;;;;;;;;;;6280606;28;20060;-55
2023/09/09 07:42:12;;;;;;;39.38;25.17;;;;;;;;;;6289108;28;20049;-56
2023/09/09 07:45:13;;;;;;;38.75;24.65;;;;;;;;;;6291746;28;20132;-56
2023/09/09 07:48:13;;;;;;;37.97;24.47;;;;;;;;;;6292849;28;20044;-56
2023/09/09 07:51:14;;;;;;;37.93;24.50;;;;;;;;;;6270874;28;20403;-56
2023/09/09 07:54:15;;;;;;;36.17;23.03;;;;;;;;;;6268021;28;20053;-56
2023/09/09 07:57:15;;;;;;;34.87;21.97;;;;;;;;;;6290159;28;20102;-57
2023/09/09 08:00:17;;;;;;;36.17;23.27;;;;;;;;;;6287899;28;20544;-55
2023/09/09 08:03:17;;;;;;;34.33;21.10;;;;;;;;;;6285444;28;20097;-57
2023/09/09 08:06:18;;;;;;;28.90;20.13;;;;;;;;;;6287145;28;20091;-55
2023/09/09 08:09:20;;;;;;;32.57;21.43;;;;;;;;;;6287777;28;20061;-56
2023/09/09 08:12:21;;;;;;;32.75;19.77;;;;;;;;;;6287346;28;20120;-61
2023/09/09 08:15:23;;;;;;;31.38;19.40;;;;;;;;;;6286367;28;20076;-64
2023/09/09 08:18:24;;;;;;;28.33;18.47;;;;;;;;;;6290605;28;20663;-60
2023/09/09 08:21:24;;;;;;;27.67;18.27;;;;;;;;;;6289199;28;20491;-52
2023/09/09 08:24:25;;;;;;;31.47;19.63;;;;;;;;;;6289143;28;20040;-61
2023/09/09 08:27:25;;;;;;;26.77;19.47;;;;;;;;;;6289291;28;20052;-68
2023/09/09 08:30:26;;;;;;;27.30;17.13;;;;;;;;;;6289196;28;20048;-57
2023/09/09 08:33:27;;;;;;;26.03;17.93;;;;;;;;;;6287851;28;20053;-54
2023/09/09 08:36:27;;;;;;;30.07;19.90;;;;;;;;;;6290478;28;20048;-55
2023/09/09 08:39:28;;;;;;;34.33;21.80;;;;;;;;;;6290784;28;20056;-55
2023/09/09 08:43:18;;;;;;;35.00;19.07;;;;;;;;;;6287396;28;20090;-56
2023/09/09 08:46:20;;;;;;;27.23;17.90;;;;;;;;;;6282395;28;20048;-57
2023/09/09 08:49:23;;;;;;;33.53;18.95;;;;;;;;;;6288631;28;20114;-53
2023/09/09 08:52:27;;;;;;;27.02;17.63;;;;;;;;;;6289721;28;20055;-56
2023/09/09 08:55:28;;;;;;;36.13;20.27;;;;;;;;;;6287493;28;20126;-58
2023/09/09 08:58:28;;;;;;;25.53;15.77;;;;;;;;;;6282731;28;20041;-57
2023/09/09 09:01:31;;;;;;;29.67;17.50;;;;;;;;;;6289553;28;20058;-59
2023/09/09 09:04:32;;;;;;;36.35;19.77;;;;;;;;;;6287789;28;20055;-58
2023/09/09 09:07:34;;;;;;;42.08;21.88;;;;;;;;;;6287248;28;20059;-58
2023/09/09 09:10:37;;;;;;;23.17;15.52;;;;;;;;;;6290674;28;20052;-59
2023/09/09 09:13:37;;;;;;;32.17;18.90;;;;;;;;;;6291289;28;20056;-58
2023/09/09 09:16:39;;;;;;;41.13;20.80;;;;;;;;;;6288377;28;20059;-59
2023/09/09 09:19:40;;;;;;;21.20;15.60;;;;;;;;;;6282569;28;20087;-59
2023/09/09 09:22:41;;;;;;;20.73;14.63;;;;;;;;;;6286329;28;20040;-59
2023/09/09 09:25:44;;;;;;;21.23;14.32;;;;;;;;;;6287981;28;20056;-58
2023/09/09 09:28:44;;;;;;;23.08;15.23;;;;;;;;;;6285098;28;20048;-57
2023/09/09 09:31:54;;;;;;;22.10;14.53;;;;;;;;;;6289014;28;20130;-62
2023/09/09 09:34:54;;;;;;;22.30;15.23;;;;;;;;;;6287365;28;20037;-64
2023/09/09 09:37:59;;;;;;;21.17;15.13;;;;;;;;;;6285542;28;20098;-61
2023/09/09 09:41:00;;;;;;;20.65;14.57;;;;;;;;;;6284523;28;20047;-66
2023/09/09 09:44:01;;;;;;;19.87;14.73;;;;;;;;;;6287988;28;20056;-60
2023/09/09 09:47:08;;;;;;;18.80;13.30;;;;;;;;;;6284618;28;20049;-64
2023/09/09 09:50:30;;;;;;;21.80;14.20;;;;;;;;;;6289276;28;20140;-63
2023/09/09 09:53:32;;;;;;;21.08;14.80;;;;;;;;;;6285925;28;20055;-60
2023/09/09 09:56:32;;;;;;;21.50;14.77;;;;;;;;;;6287545;28;20049;-68
2023/09/09 09:59:34;;;;;;;19.33;14.07;;;;;;;;;;6286934;28;20047;-68
2023/09/09 10:02:35;;;;;;;22.25;14.00;;;;;;;;;;6285247;28;20414;-60
2023/09/09 10:05:37;;;;;;;22.50;15.27;;;;;;;;;;6287671;28;20048;-69
2023/09/09 10:08:45;;;;;;;23.73;15.68;;;;;;;;;;6288241;28;20499;-59
2023/09/09 10:12:09;;;;;;;23.10;14.20;;;;;;;;;;6286209;28;20186;-60
2023/09/09 10:15:12;;;;;;;20.58;14.63;;;;;;;;;;6287167;28;20085;-63
2023/09/09 10:18:13;;;;;;;20.20;14.43;;;;;;;;;;6289628;28;20057;-60
2023/09/09 10:21:15;;;;;;;21.48;15.20;;;;;;;;;;6290660;28;20398;-60
2023/09/09 10:24:16;;;;;;;19.77;13.85;;;;;;;;;;6277080;28;20037;-58
2023/09/09 10:27:19;;;;;;;20.10;13.23;;;;;;;;;;6271968;28;20060;-61
2023/09/09 10:30:20;;;;;;;21.30;12.73;;;;;;;;;;6265768;28;20391;-62
2023/09/09 10:33:23;;;;;;;17.75;11.55;;;;;;;;;;6269170;28;20063;-61
2023/09/09 10:36:25;;;;;;;20.38;13.18;;;;;;;;;;6270245;28;20056;-60
2023/09/09 10:39:27;;;;;;;18.77;13.18;;;;;;;;;;6270319;28;20052;-61
2023/09/09 10:42:28;;;;;;;17.45;12.30;;;;;;;;;;6269810;28;20052;-57
2023/09/09 10:45:39;;;;;;;17.45;12.07;;;;;;;;;;6264816;28;20590;-58
2023/09/09 10:48:43;;;;;;;18.33;11.93;;;;;;;;;;6267388;28;20174;-57
2023/09/09 10:51:51;;;;;;;17.63;11.45;;;;;;;;;;6264918;28;20433;-58
2023/09/09 10:55:09;;;;;;;17.00;11.93;;;;;;;;;;6265360;28;20053;-58
2023/09/09 10:58:15;;;;;;;16.85;12.13;;;;;;;;;;6266515;28;20454;-61
2023/09/09 11:01:26;;;;;;;17.30;12.65;;;;;;;;;;6269909;28;20426;-60
2023/09/09 11:04:28;;;;;;;16.50;11.32;;;;;;;;;;6271848;28;20084;-59
2023/09/09 11:07:40;;;;;;;;;;;;;;;;;;6268682;28;20051;-58
2023/09/09 11:10:41;;;;;;;15.32;11.27;;;;;;;;;;6265855;28;19921;-58
2023/09/09 11:13:57;;;;;;;16.40;11.80;;;;;;;;;;6269657;28;20071;-60
2023/09/09 11:16:57;;;;;;;16.73;11.25;;;;;;;;;;6265018;28;20099;-59
2023/09/09 11:19:58;;;;;;;19.43;12.43;;;;;;;;;;6265988;28;20383;-59
2023/09/09 11:22:59;;;;;;;19.50;12.65;;;;;;;;;;6264722;28;20037;-59
2023/09/09 11:26:01;;;;;;;16.90;11.30;;;;;;;;;;6263020;28;20044;-60
2023/09/09 11:29:04;;;;;;;17.02;11.23;;;;;;;;;;6270721;28;20041;-59
2023/09/09 11:32:09;;;;;;;15.57;10.52;;;;;;;;;;6269497;28;20060;-60
2023/09/09 11:35:11;;;;;;;20.20;12.07;;;;;;;;;;6265585;28;20045;-61
2023/09/09 11:38:13;;;;;;;19.75;12.32;;;;;;;;;;6270217;28;20052;-61
2023/09/09 11:41:22;;;;;;;16.83;11.68;;;;;;;;;;6272390;28;20047;-60
2023/09/09 11:44:23;;;;;;;16.88;11.90;;;;;;;;;;6266153;28;20045;-59
2023/09/09 11:47:24;;;;;;;18.77;10.87;;;;;;;;;;6268284;28;20513;-59
2023/09/09 11:50:38;;;;;;;18.07;11.83;;;;;;;;;;6267698;28;20437;-59
2023/09/09 11:53:39;;;;;;;15.93;11.23;;;;;;;;;;6264785;28;20523;-68
2023/09/09 11:56:40;;;;;;;14.40;10.90;;;;;;;;;;6267740;28;20061;-59
2023/09/09 11:59:45;;;;;;;15.75;11.05;;;;;;;;;;6270018;28;20052;-59
2023/09/09 12:02:46;;;;;;;18.17;11.48;;;;;;;;;;6272087;28;20059;-60
2023/09/09 12:05:49;;;;;;;13.48;10.20;;;;;;;;;;6269223;28;20146;-57
2023/09/09 12:08:49;;;;;;;16.27;10.75;;;;;;;;;;6269052;28;20434;-58
2023/09/09 12:11:50;;;;;;;18.23;11.27;;;;;;;;;;6267196;28;20072;-60
2023/09/09 12:14:54;;;;;;;18.90;11.63;;;;;;;;;;6275912;28;20711;-60
2023/09/09 12:17:54;;;;;;;16.17;11.60;;;;;;;;;;6277812;28;20049;-58
2023/09/09 12:21:11;;;;;;;15.33;10.90;;;;;;;;;;6264869;28;20049;-60
2023/09/09 12:24:11;;;;;;;16.35;11.32;;;;;;;;;;6286276;28;20044;-59
2023/09/09 12:27:12;;;;;;;16.93;11.57;;;;;;;;;;6288123;28;20067;-59
2023/09/09 12:30:38;;;;;;;20.02;11.40;;;;;;;;;;6288454;28;20048;-59
2023/09/09 12:33:41;;;;;;;16.30;11.45;;;;;;;;;;6268846;28;20079;-59
2023/09/09 12:36:42;;;;;;;17.70;12.35;;;;;;;;;;6286412;28;20857;-59
2023/09/09 12:39:42;;;;;;;14.17;10.50;;;;;;;;;;6284893;28;20049;-59
2023/09/09 12:42:43;;;;;;;19.00;10.97;;;;;;;;;;6286148;28;20055;-59
2023/09/09 12:45:45;;;;;;;16.67;11.70;;;;;;;;;;6288944;28;20548;-59
2023/09/09 12:48:56;;;;;;;16.48;12.00;;;;;;;;;;6290185;28;20053;-60
2023/09/09 12:51:57;;;;;;;16.63;11.75;;;;;;;;;;6288683;28;20064;-59
2023/09/09 12:54:58;;;;;;;16.25;11.35;;;;;;;;;;6289147;28;20479;-60
2023/09/09 12:57:59;;;;;;;15.97;11.27;;;;;;;;;;6289732;28;20487;-60
2023/09/09 13:01:00;;;;;;;15.57;11.05;;;;;;;;;;6286803;28;20048;-59
2023/09/09 13:04:01;;;;;;;16.73;12.17;;;;;;;;;;6287774;28;20551;-59
2023/09/09 13:07:01;;;;;;;17.15;11.35;;;;;;;;;;6290159;28;20495;-59
2023/09/09 13:10:02;;;;;;;15.57;10.83;;;;;;;;;;6289531;28;20059;-59
2023/09/09 13:13:03;;;;;;;15.32;10.27;;;;;;;;;;6287986;28;20098;-59
2023/09/09 13:16:06;;;;;;;17.17;11.02;;;;;;;;;;6289767;28;20048;-59
2023/09/09 13:19:07;;;;;;;16.13;11.00;;;;;;;;;;6289834;28;20600;-59
2023/09/09 13:22:07;;;;;;;16.40;11.37;;;;;;;;;;6288307;28;20051;-60
2023/09/09 13:25:08;;;;;;;18.17;11.13;;;;;;;;;;6288949;28;20044;-59
2023/09/09 13:28:08;;;;;;;15.70;10.47;;;;;;;;;;6291041;28;20041;-59
2023/09/09 13:31:09;;;;;;;16.27;11.07;;;;;;;;;;6287477;28;21551;-59
2023/09/09 13:34:09;;;;;;;17.37;11.60;;;;;;;;;;6290711;28;20535;-59
2023/09/09 13:37:10;;;;;;;20.20;11.97;;;;;;;;;;6289614;28;20487;-59
2023/09/09 13:40:11;;;;;;;19.43;11.93;;;;;;;;;;6287524;28;20308;-59
2023/09/09 13:43:11;;;;;;;18.15;12.48;;;;;;;;;;6289674;28;20500;-59
2023/09/09 13:46:13;;;;;;;15.20;10.50;;;;;;;;;;6289445;28;20245;-60
2023/09/09 13:49:13;;;;;;;;;;;;;;;;;;6290220;28;20056;-59
2023/09/09 13:52:14;;;;;;;16.03;10.30;;;;;;;;;;6288174;28;19946;-59
2023/09/09 13:55:15;;;;;;;18.35;11.45;;;;;;;;;;6294626;28;20057;-59
2023/09/09 13:58:15;;;;;;;17.15;11.85;;;;;;;;;;6294054;28;20053;-59
2023/09/09 14:01:17;;;;;;;16.93;11.47;;;;;;;;;;6291718;28;20040;-59
2023/09/09 14:04:18;;;;;;;17.45;11.80;;;;;;;;;;6294046;28;20342;-60
2023/09/09 14:07:19;;;;;;;16.83;11.63;;;;;;;;;;6293826;28;20123;-61
2023/09/09 14:10:19;;;;;;;16.10;10.77;;;;;;;;;;6292146;28;20052;-59
2023/09/09 14:13:20;;;;;;;15.45;10.95;;;;;;;;;;6290576;28;20087;-59
2023/09/09 14:16:20;;;;;;;21.30;12.67;;;;;;;;;;6293991;28;20051;-59
2023/09/09 14:19:21;;;;;;;17.30;12.67;;;;;;;;;;6294057;28;20080;-59
2023/09/09 14:22:21;;;;;;;18.03;12.47;;;;;;;;;;6293090;28;20779;-59
2023/09/09 14:25:22;;;;;;;15.82;12.02;;;;;;;;;;6292793;28;20067;-57
2023/09/09 14:28:23;;;;;;;19.13;11.97;;;;;;;;;;6292068;28;20052;-59
2023/09/09 14:31:24;;;;;;;16.58;11.75;;;;;;;;;;6293546;28;20086;-60
2023/09/09 14:34:25;;;;;;;17.33;11.95;;;;;;;;;;6291510;28;20402;-59
2023/09/09 14:37:25;;;;;;;17.45;12.25;;;;;;;;;;6293035;28;20051;-59
2023/09/09 14:40:26;;;;;;;18.40;13.17;;;;;;;;;;6292780;28;20051;-59
2023/09/09 14:43:26;;;;;;;17.20;11.98;;;;;;;;;;6291426;28;20484;-59
2023/09/09 14:46:27;;;;;;;18.58;11.82;;;;;;;;;;6293655;28;20068;-59
2023/09/09 14:49:28;;;;;;;17.37;11.90;;;;;;;;;;6292525;28;20057;-59
2023/09/09 14:52:30;;;;;;;18.63;12.32;;;;;;;;;;6291775;28;20076;-59
2023/09/09 14:55:30;;;;;;;18.92;12.95;;;;;;;;;;6292423;28;20057;-59
2023/09/09 14:58:31;;;;;;;17.70;12.73;;;;;;;;;;6292067;28;20049;-57
2023/09/09 15:01:32;;;;;;;19.10;11.93;;;;;;;;;;6290169;28;20048;-59
2023/09/09 15:04:33;;;;;;;21.45;12.45;;;;;;;;;;6291040;28;20059;-58
2023/09/09 15:07:33;;;;;;;16.42;12.13;;;;;;;;;;6291984;28;20419;-60
2023/09/09 15:10:34;;;;;;;18.80;12.60;;;;;;;;;;6291569;28;20052;-59
2023/09/09 15:13:34;;;;;;;18.83;11.50;;;;;;;;;;6291650;28;20044;-59
2023/09/09 15:16:50;;;;;;;15.20;11.95;;;;;;;;;;6292569;28;20037;-60
2023/09/09 15:19:53;;;;;;;18.70;13.20;;;;;;;;;;6292089;28;20489;-59
2023/09/09 15:22:54;;;;;;;17.83;12.30;;;;;;;;;;6291402;28;20045;-59
2023/09/09 15:25:55;;;;;;;18.13;12.43;;;;;;;;;;6280524;28;20036;-60
2023/09/09 15:28:57;;;;;;;16.63;12.35;;;;;;;;;;6291671;28;20090;-59
2023/09/09 15:31:58;;;;;;;19.90;12.18;;;;;;;;;;6290882;28;20418;-60
2023/09/09 15:34:58;;;;;;;19.80;14.27;;;;;;;;;;6290167;28;20072;-60
2023/09/09 15:37:59;;;;;;;19.17;13.13;;;;;;;;;;6291719;28;20629;-59
2023/09/09 15:40:59;;;;;;;19.58;13.63;;;;;;;;;;6291629;28;20052;-60
2023/09/09 15:44:00;;;;;;;20.97;13.50;;;;;;;;;;6279337;28;20044;-60
2023/09/09 15:47:01;;;;;;;22.73;14.18;;;;;;;;;;6291963;28;20513;-60
2023/09/09 15:50:02;;;;;;;20.80;13.57;;;;;;;;;;6290968;28;20052;-57
2023/09/09 15:53:02;;;;;;;18.35;12.73;;;;;;;;;;6286227;28;20388;-59
2023/09/09 15:56:10;;;;;;;18.50;12.93;;;;;;;;;;6289919;28;20060;-59
2023/09/09 15:59:10;;;;;;;17.77;12.30;;;;;;;;;;6290876;28;20041;-60
2023/09/09 16:02:11;;;;;;;18.20;13.17;;;;;;;;;;6288704;28;20067;-60
2023/09/09 16:05:12;;;;;;;22.90;13.57;;;;;;;;;;6286471;28;20063;-60
2023/09/09 16:08:12;;;;;;;21.40;13.43;;;;;;;;;;6267424;28;20052;-60
2023/09/09 16:11:13;;;;;;;21.00;13.95;;;;;;;;;;6268810;28;20558;-59
2023/09/09 16:14:13;;;;;;;25.77;15.07;;;;;;;;;;6263309;28;20094;-60
2023/09/09 16:17:14;;;;;;;21.83;15.17;;;;;;;;;;6263280;28;20045;-61
2023/09/09 16:20:15;;;;;;;23.83;16.17;;;;;;;;;;6266284;28;20293;-62
2023/09/09 16:23:16;;;;;;;20.80;15.20;;;;;;;;;;6271335;28;20090;-61
2023/09/09 16:26:16;;;;;;;22.05;15.50;;;;;;;;;;6263768;28;20415;-60
2023/09/09 16:29:17;;;;;;;26.80;15.45;;;;;;;;;;6269802;28;20458;-60
2023/09/09 16:32:18;;;;;;;21.80;15.23;;;;;;;;;;6266257;28;20051;-61
2023/09/09 16:35:18;;;;;;;32.67;16.27;;;;;;;;;;6269415;28;20098;-62
2023/09/09 16:38:19;;;;;;;23.70;14.60;;;;;;;;;;6266798;28;20059;-60
2023/09/09 16:41:19;;;;;;;22.70;15.00;;;;;;;;;;6269172;28;20478;-60
2023/09/09 16:44:20;;;;;;;23.83;14.33;;;;;;;;;;6265944;28;20302;-61
2023/09/09 16:47:20;;;;;;;21.08;14.52;;;;;;;;;;6269857;28;20105;-61
2023/09/09 16:50:21;;;;;;;22.17;13.63;;;;;;;;;;6264839;28;20037;-62
2023/09/09 16:53:22;;;;;;;20.33;13.15;;;;;;;;;;6265603;28;20053;-60
2023/09/09 16:56:22;;;;;;;25.07;14.20;;;;;;;;;;6264079;28;20057;-61
2023/09/09 16:59:37;;;;;;;23.35;13.93;;;;;;;;;;6266653;28;20048;-61
2023/09/09 17:02:38;;;;;;;23.95;14.63;;;;;;;;;;6267361;28;20959;-63
2023/09/09 17:05:45;;;;;;;21.60;15.15;;;;;;;;;;6266095;28;20048;-63
2023/09/09 17:08:46;;;;;;;23.13;15.57;;;;;;;;;;6270294;28;20052;-62
2023/09/09 17:11:47;;;;;;;21.47;15.73;;;;;;;;;;6268403;28;20129;-61
2023/09/09 17:14:47;;;;;;;24.07;15.70;;;;;;;;;;6268815;28;20465;-61
2023/09/09 17:17:49;;;;;;;25.10;15.23;;;;;;;;;;6270192;28;20494;-62
2023/09/09 17:20:50;;;;;;;23.25;15.15;;;;;;;;;;6270301;28;20052;-61
2023/09/09 17:23:51;;;;;;;;;;;;;;;;;;6266908;28;20407;-61
2023/09/09 17:26:51;;;;;;;22.05;15.35;;;;;;;;;;6270146;28;19921;-62
2023/09/09 17:29:52;;;;;;;22.27;15.10;;;;;;;;;;6272984;28;20076;-60
2023/09/09 17:32:54;;;;;;;20.25;14.90;;;;;;;;;;6273146;28;20052;-61
2023/09/09 17:35:56;;;;;;;22.52;14.52;;;;;;;;;;6267272;28;20625;-62
2023/09/09 17:39:17;;;;;;;25.15;15.48;;;;;;;;;;6267100;28;20041;-60